Terminal Aerodrome Forecast
Issued by NWS Charleston, WV

Current Version | Previous Version | Graphics & Text | Print | Product List | Glossary On
Versions: 1 2 3 4 5 6 7 8 9 10 11 12 13 14 15 16 17 18 19 20 21 22 23 24
464
FTUS41 KRLX 270754 AAA
TAFHTS
TAF AMD
KHTS 270754Z 2708/2806 00000KT 1SM BR BKN003
     FM271200 00000KT 4SM BR SKC
     FM271300 VRB03KT P6SM FEW030
     FM271600 13003KT P6SM FEW040=

USA.gov is the U.S. government's official web portal to all federal, state and local government web resources and services.